sensor_id;sensor_type;location;lat;lon;timestamp;P1;durP1;ratioP1;P2;durP2;ratioP2
61150;SDS011;47029;50.994;2.876;2022-11-13T00:00:50;30.33;;;16.65;;
61150;SDS011;47029;50.994;2.876;2022-11-13T00:03:16;29.73;;;15.60;;
61150;SDS011;47029;50.994;2.876;2022-11-13T00:05:42;30.52;;;15.30;;
61150;SDS011;47029;50.994;2.876;2022-11-13T00:08:08;30.65;;;16.10;;
61150;SDS011;47029;50.994;2.876;2022-11-13T00:10:34;32.00;;;15.45;;
61150;SDS011;47029;50.994;2.876;2022-11-13T00:13:00;30.20;;;16.15;;
61150;SDS011;47029;50.994;2.876;2022-11-13T00:15:26;29.17;;;15.40;;
61150;SDS011;47029;50.994;2.876;2022-11-13T00:17:52;26.42;;;14.27;;
61150;SDS011;47029;50.994;2.876;2022-11-13T00:20:18;28.45;;;15.00;;
61150;SDS011;47029;50.994;2.876;2022-11-13T00:22:44;26.45;;;15.35;;
61150;SDS011;47029;50.994;2.876;2022-11-13T00:25:10;30.37;;;15.73;;
61150;SDS011;47029;50.994;2.876;2022-11-13T00:27:36;28.25;;;15.93;;
61150;SDS011;47029;50.994;2.876;2022-11-13T00:30:03;27.92;;;14.85;;
61150;SDS011;47029;50.994;2.876;2022-11-13T00:32:30;25.98;;;14.25;;
61150;SDS011;47029;50.994;2.876;2022-11-13T00:34:55;24.58;;;13.77;;
61150;SDS011;47029;50.994;2.876;2022-11-13T00:37:21;25.98;;;12.73;;
61150;SDS011;47029;50.994;2.876;2022-11-13T00:39:47;25.12;;;14.00;;
61150;SDS011;47029;50.994;2.876;2022-11-13T00:42:13;24.90;;;13.38;;
61150;SDS011;47029;50.994;2.876;2022-11-13T00:44:39;27.10;;;14.55;;
61150;SDS011;47029;50.994;2.876;2022-11-13T00:47:05;26.65;;;13.70;;
61150;SDS011;47029;50.994;2.876;2022-11-13T00:49:31;26.55;;;14.35;;
61150;SDS011;47029;50.994;2.876;2022-11-13T00:51:57;27.17;;;14.43;;
61150;SDS011;47029;50.994;2.876;2022-11-13T00:54:24;27.08;;;14.40;;
61150;SDS011;47029;50.994;2.876;2022-11-13T00:56:50;24.52;;;14.38;;
61150;SDS011;47029;50.994;2.876;2022-11-13T00:59:16;28.62;;;14.85;;
61150;SDS011;47029;50.994;2.876;2022-11-13T01:01:42;27.60;;;14.35;;
61150;SDS011;47029;50.994;2.876;2022-11-13T01:04:08;28.95;;;15.50;;
61150;SDS011;47029;50.994;2.876;2022-11-13T01:06:34;27.85;;;14.68;;
61150;SDS011;47029;50.994;2.876;2022-11-13T01:09:00;26.25;;;14.82;;
61150;SDS011;47029;50.994;2.876;2022-11-13T01:11:27;28.90;;;14.75;;
61150;SDS011;47029;50.994;2.876;2022-11-13T01:13:54;30.05;;;15.55;;
61150;SDS011;47029;50.994;2.876;2022-11-13T01:16:22;28.15;;;15.10;;
61150;SDS011;47029;50.994;2.876;2022-11-13T01:18:49;31.85;;;16.12;;
61150;SDS011;47029;50.994;2.876;2022-11-13T01:21:20;29.42;;;15.15;;
61150;SDS011;47029;50.994;2.876;2022-11-13T01:23:47;25.60;;;14.23;;
61150;SDS011;47029;50.994;2.876;2022-11-13T01:26:17;27.80;;;14.38;;
61150;SDS011;47029;50.994;2.876;2022-11-13T01:28:45;27.42;;;14.70;;
61150;SDS011;47029;50.994;2.876;2022-11-13T01:31:13;25.77;;;13.82;;
61150;SDS011;47029;50.994;2.876;2022-11-13T01:33:41;26.67;;;14.25;;
61150;SDS011;47029;50.994;2.876;2022-11-13T01:36:13;25.08;;;14.35;;
61150;SDS011;47029;50.994;2.876;2022-11-13T01:38:46;25.50;;;14.93;;
61150;SDS011;47029;50.994;2.876;2022-11-13T01:41:45;28.48;;;15.82;;
61150;SDS011;47029;50.994;2.876;2022-11-13T01:44:08;24.95;;;13.98;;
61150;SDS011;47029;50.994;2.876;2022-11-13T01:46:42;31.33;;;15.25;;
61150;SDS011;47029;50.994;2.876;2022-11-13T01:52:16;131.20;;;19.33;;
61150;SDS011;47029;50.994;2.876;2022-11-13T01:54:38;21.35;;;11.48;;
61150;SDS011;47029;50.994;2.876;2022-11-13T01:57:07;24.92;;;13.73;;
61150;SDS011;47029;50.994;2.876;2022-11-13T01:59:35;23.83;;;13.77;;
61150;SDS011;47029;50.994;2.876;2022-11-13T02:02:04;27.65;;;14.73;;
61150;SDS011;47029;50.994;2.876;2022-11-13T02:04:30;25.95;;;14.90;;
61150;SDS011;47029;50.994;2.876;2022-11-13T02:07:02;26.20;;;13.52;;
61150;SDS011;47029;50.994;2.876;2022-11-13T02:10:04;26.42;;;14.30;;
61150;SDS011;47029;50.994;2.876;2022-11-13T02:12:24;25.12;;;13.43;;
61150;SDS011;47029;50.994;2.876;2022-11-13T02:14:56;25.10;;;13.70;;
61150;SDS011;47029;50.994;2.876;2022-11-13T02:17:30;28.17;;;14.77;;
61150;SDS011;47029;50.994;2.876;2022-11-13T02:20:03;28.38;;;14.30;;
61150;SDS011;47029;50.994;2.876;2022-11-13T02:22:44;26.00;;;13.65;;
61150;SDS011;47029;50.994;2.876;2022-11-13T02:25:20;23.92;;;13.75;;
61150;SDS011;47029;50.994;2.876;2022-11-13T02:27:47;22.35;;;12.32;;
61150;SDS011;47029;50.994;2.876;2022-11-13T02:30:16;21.80;;;12.57;;
61150;SDS011;47029;50.994;2.876;2022-11-13T02:32:47;153.45;;;19.45;;
61150;SDS011;47029;50.994;2.876;2022-11-13T02:35:23;164.30;;;21.00;;
61150;SDS011;47029;50.994;2.876;2022-11-13T02:38:02;21.02;;;10.75;;
61150;SDS011;47029;50.994;2.876;2022-11-13T02:40:29;23.48;;;11.15;;
61150;SDS011;47029;50.994;2.876;2022-11-13T02:42:57;22.67;;;12.60;;
61150;SDS011;47029;50.994;2.876;2022-11-13T02:45:24;23.20;;;12.32;;
61150;SDS011;47029;50.994;2.876;2022-11-13T02:47:50;22.92;;;12.30;;
61150;SDS011;47029;50.994;2.876;2022-11-13T02:50:16;22.10;;;11.12;;
61150;SDS011;47029;50.994;2.876;2022-11-13T02:52:42;21.42;;;11.45;;
61150;SDS011;47029;50.994;2.876;2022-11-13T02:55:09;27.98;;;14.18;;
61150;SDS011;47029;50.994;2.876;2022-11-13T02:57:35;28.05;;;15.38;;
61150;SDS011;47029;50.994;2.876;2022-11-13T03:00:00;27.37;;;14.05;;
61150;SDS011;47029;50.994;2.876;2022-11-13T03:02:26;27.17;;;14.10;;
61150;SDS011;47029;50.994;2.876;2022-11-13T03:04:52;24.25;;;14.18;;
61150;SDS011;47029;50.994;2.876;2022-11-13T03:07:18;27.55;;;14.18;;
61150;SDS011;47029;50.994;2.876;2022-11-13T03:09:44;25.33;;;14.45;;
61150;SDS011;47029;50.994;2.876;2022-11-13T03:12:10;24.70;;;14.05;;
61150;SDS011;47029;50.994;2.876;2022-11-13T03:14:36;25.75;;;13.88;;
61150;SDS011;47029;50.994;2.876;2022-11-13T03:17:02;21.62;;;12.68;;
61150;SDS011;47029;50.994;2.876;2022-11-13T03:19:28;26.67;;;13.05;;
61150;SDS011;47029;50.994;2.876;2022-11-13T03:21:54;24.92;;;13.62;;
61150;SDS011;47029;50.994;2.876;2022-11-13T03:24:20;24.60;;;12.70;;
61150;SDS011;47029;50.994;2.876;2022-11-13T03:26:46;21.95;;;12.23;;
61150;SDS011;47029;50.994;2.876;2022-11-13T03:29:13;23.08;;;11.65;;
61150;SDS011;47029;50.994;2.876;2022-11-13T03:31:39;27.67;;;13.30;;
61150;SDS011;47029;50.994;2.876;2022-11-13T03:34:05;25.27;;;13.52;;
61150;SDS011;47029;50.994;2.876;2022-11-13T03:36:30;24.92;;;13.70;;
61150;SDS011;47029;50.994;2.876;2022-11-13T03:38:57;26.58;;;14.32;;
61150;SDS011;47029;50.994;2.876;2022-11-13T03:41:23;26.87;;;14.55;;
61150;SDS011;47029;50.994;2.876;2022-11-13T03:43:49;26.42;;;14.40;;
61150;SDS011;47029;50.994;2.876;2022-11-13T03:46:15;25.00;;;12.60;;
61150;SDS011;47029;50.994;2.876;2022-11-13T03:48:41;22.15;;;11.75;;
61150;SDS011;47029;50.994;2.876;2022-11-13T03:51:07;21.12;;;11.65;;
61150;SDS011;47029;50.994;2.876;2022-11-13T03:53:33;24.45;;;12.40;;
61150;SDS011;47029;50.994;2.876;2022-11-13T03:55:59;23.23;;;12.75;;
61150;SDS011;47029;50.994;2.876;2022-11-13T03:58:25;24.60;;;12.43;;
61150;SDS011;47029;50.994;2.876;2022-11-13T04:00:52;24.33;;;12.90;;
61150;SDS011;47029;50.994;2.876;2022-11-13T04:03:19;24.37;;;12.88;;
61150;SDS011;47029;50.994;2.876;2022-11-13T04:05:46;24.48;;;13.93;;
61150;SDS011;47029;50.994;2.876;2022-11-13T04:08:13;25.25;;;14.00;;
61150;SDS011;47029;50.994;2.876;2022-11-13T04:10:39;27.35;;;14.38;;
61150;SDS011;47029;50.994;2.876;2022-11-13T04:13:06;27.13;;;14.38;;
61150;SDS011;47029;50.994;2.876;2022-11-13T04:15:32;25.95;;;14.00;;
61150;SDS011;47029;50.994;2.876;2022-11-13T04:17:58;28.48;;;14.65;;
61150;SDS011;47029;50.994;2.876;2022-11-13T04:20:24;28.55;;;16.00;;
61150;SDS011;47029;50.994;2.876;2022-11-13T04:22:52;30.17;;;16.12;;
61150;SDS011;47029;50.994;2.876;2022-11-13T04:25:22;29.00;;;16.10;;
61150;SDS011;47029;50.994;2.876;2022-11-13T04:27:49;27.13;;;14.95;;
61150;SDS011;47029;50.994;2.876;2022-11-13T04:30:15;39.83;;;15.05;;
61150;SDS011;47029;50.994;2.876;2022-11-13T04:32:42;26.05;;;14.13;;
61150;SDS011;47029;50.994;2.876;2022-11-13T04:35:08;27.67;;;15.45;;
61150;SDS011;47029;50.994;2.876;2022-11-13T04:37:33;30.50;;;15.75;;
61150;SDS011;47029;50.994;2.876;2022-11-13T04:39:59;28.70;;;16.02;;
61150;SDS011;47029;50.994;2.876;2022-11-13T04:42:25;27.60;;;13.07;;
61150;SDS011;47029;50.994;2.876;2022-11-13T04:45:10;26.17;;;13.98;;
61150;SDS011;47029;50.994;2.876;2022-11-13T04:47:35;25.20;;;13.93;;
61150;SDS011;47029;50.994;2.876;2022-11-13T04:50:02;24.63;;;14.20;;
61150;SDS011;47029;50.994;2.876;2022-11-13T04:52:28;24.23;;;13.50;;
61150;SDS011;47029;50.994;2.876;2022-11-13T04:54:54;28.60;;;13.75;;
61150;SDS011;47029;50.994;2.876;2022-11-13T04:57:21;26.70;;;14.77;;
61150;SDS011;47029;50.994;2.876;2022-11-13T04:59:47;26.65;;;14.82;;
61150;SDS011;47029;50.994;2.876;2022-11-13T05:02:14;33.05;;;15.00;;
61150;SDS011;47029;50.994;2.876;2022-11-13T05:04:39;25.50;;;14.85;;
61150;SDS011;47029;50.994;2.876;2022-11-13T05:07:05;27.98;;;14.63;;
61150;SDS011;47029;50.994;2.876;2022-11-13T05:09:31;27.08;;;14.55;;
61150;SDS011;47029;50.994;2.876;2022-11-13T05:11:57;27.83;;;14.60;;
61150;SDS011;47029;50.994;2.876;2022-11-13T05:14:22;28.83;;;14.85;;
61150;SDS011;47029;50.994;2.876;2022-11-13T05:16:49;24.35;;;13.75;;
61150;SDS011;47029;50.994;2.876;2022-11-13T05:19:15;28.15;;;14.63;;
61150;SDS011;47029;50.994;2.876;2022-11-13T05:21:42;29.60;;;15.05;;
61150;SDS011;47029;50.994;2.876;2022-11-13T05:24:09;27.85;;;14.73;;
61150;SDS011;47029;50.994;2.876;2022-11-13T05:26:36;22.23;;;12.57;;
61150;SDS011;47029;50.994;2.876;2022-11-13T05:29:04;25.20;;;13.50;;
61150;SDS011;47029;50.994;2.876;2022-11-13T05:31:30;27.87;;;14.90;;
61150;SDS011;47029;50.994;2.876;2022-11-13T05:33:56;24.35;;;13.73;;
61150;SDS011;47029;50.994;2.876;2022-11-13T05:36:22;28.40;;;14.23;;
61150;SDS011;47029;50.994;2.876;2022-11-13T05:38:48;29.23;;;14.45;;
61150;SDS011;47029;50.994;2.876;2022-11-13T05:41:15;27.35;;;15.35;;
61150;SDS011;47029;50.994;2.876;2022-11-13T05:43:43;28.83;;;14.87;;
61150;SDS011;47029;50.994;2.876;2022-11-13T05:48:43;25.23;;;13.73;;
61150;SDS011;47029;50.994;2.876;2022-11-13T05:51:17;26.20;;;14.38;;
61150;SDS011;47029;50.994;2.876;2022-11-13T05:53:44;24.23;;;13.43;;
61150;SDS011;47029;50.994;2.876;2022-11-13T05:56:12;26.95;;;13.70;;
61150;SDS011;47029;50.994;2.876;2022-11-13T05:58:43;27.75;;;14.13;;
61150;SDS011;47029;50.994;2.876;2022-11-13T06:03:39;28.05;;;15.45;;
61150;SDS011;47029;50.994;2.876;2022-11-13T06:06:06;28.70;;;15.32;;
61150;SDS011;47029;50.994;2.876;2022-11-13T06:08:33;28.15;;;14.90;;
61150;SDS011;47029;50.994;2.876;2022-11-13T06:11:01;28.80;;;15.70;;
61150;SDS011;47029;50.994;2.876;2022-11-13T06:13:29;27.13;;;15.73;;
61150;SDS011;47029;50.994;2.876;2022-11-13T06:15:58;27.35;;;14.57;;
61150;SDS011;47029;50.994;2.876;2022-11-13T06:18:26;25.15;;;13.98;;
61150;SDS011;47029;50.994;2.876;2022-11-13T06:20:51;21.67;;;12.82;;
61150;SDS011;47029;50.994;2.876;2022-11-13T06:23:17;22.00;;;12.95;;
61150;SDS011;47029;50.994;2.876;2022-11-13T06:25:43;25.58;;;12.65;;
61150;SDS011;47029;50.994;2.876;2022-11-13T06:28:08;23.48;;;12.93;;
61150;SDS011;47029;50.994;2.876;2022-11-13T06:30:34;25.52;;;13.98;;
61150;SDS011;47029;50.994;2.876;2022-11-13T06:33:01;27.10;;;14.13;;
61150;SDS011;47029;50.994;2.876;2022-11-13T06:35:27;26.73;;;14.73;;
61150;SDS011;47029;50.994;2.876;2022-11-13T06:37:53;26.95;;;14.35;;
61150;SDS011;47029;50.994;2.876;2022-11-13T06:40:19;27.10;;;14.52;;
61150;SDS011;47029;50.994;2.876;2022-11-13T06:42:45;28.23;;;14.60;;
61150;SDS011;47029;50.994;2.876;2022-11-13T06:45:12;29.25;;;15.57;;
61150;SDS011;47029;50.994;2.876;2022-11-13T06:47:38;28.20;;;15.18;;
61150;SDS011;47029;50.994;2.876;2022-11-13T06:50:04;27.27;;;14.95;;
61150;SDS011;47029;50.994;2.876;2022-11-13T06:52:30;27.55;;;14.65;;
61150;SDS011;47029;50.994;2.876;2022-11-13T06:54:57;28.15;;;14.77;;
61150;SDS011;47029;50.994;2.876;2022-11-13T06:57:24;24.75;;;13.85;;
61150;SDS011;47029;50.994;2.876;2022-11-13T06:59:49;26.05;;;13.93;;
61150;SDS011;47029;50.994;2.876;2022-11-13T07:02:16;24.33;;;14.45;;
61150;SDS011;47029;50.994;2.876;2022-11-13T07:04:41;24.58;;;14.57;;
61150;SDS011;47029;50.994;2.876;2022-11-13T07:07:07;25.58;;;13.98;;
61150;SDS011;47029;50.994;2.876;2022-11-13T07:09:33;27.48;;;15.00;;
61150;SDS011;47029;50.994;2.876;2022-11-13T07:11:59;26.52;;;14.50;;
61150;SDS011;47029;50.994;2.876;2022-11-13T07:14:24;27.33;;;14.50;;
61150;SDS011;47029;50.994;2.876;2022-11-13T07:16:50;27.13;;;13.98;;
61150;SDS011;47029;50.994;2.876;2022-11-13T07:19:16;27.98;;;15.27;;
61150;SDS011;47029;50.994;2.876;2022-11-13T07:21:42;28.20;;;14.55;;
61150;SDS011;47029;50.994;2.876;2022-11-13T07:24:07;25.75;;;14.27;;
61150;SDS011;47029;50.994;2.876;2022-11-13T07:26:33;28.00;;;15.20;;
61150;SDS011;47029;50.994;2.876;2022-11-13T07:28:59;23.15;;;14.00;;
61150;SDS011;47029;50.994;2.876;2022-11-13T07:31:25;25.12;;;14.57;;
61150;SDS011;47029;50.994;2.876;2022-11-13T07:33:50;28.38;;;15.75;;
61150;SDS011;47029;50.994;2.876;2022-11-13T07:36:16;27.17;;;14.68;;
61150;SDS011;47029;50.994;2.876;2022-11-13T07:38:42;25.23;;;14.23;;
61150;SDS011;47029;50.994;2.876;2022-11-13T07:41:09;27.77;;;14.50;;
61150;SDS011;47029;50.994;2.876;2022-11-13T07:43:34;24.75;;;13.90;;
61150;SDS011;47029;50.994;2.876;2022-11-13T07:46:00;25.85;;;14.20;;
61150;SDS011;47029;50.994;2.876;2022-11-13T07:48:27;28.25;;;14.68;;
61150;SDS011;47029;50.994;2.876;2022-11-13T07:50:52;31.33;;;17.05;;
61150;SDS011;47029;50.994;2.876;2022-11-13T07:53:19;31.62;;;17.83;;
61150;SDS011;47029;50.994;2.876;2022-11-13T07:55:45;39.22;;;19.80;;
61150;SDS011;47029;50.994;2.876;2022-11-13T07:58:12;39.70;;;21.50;;
61150;SDS011;47029;50.994;2.876;2022-11-13T08:00:39;33.38;;;20.25;;
61150;SDS011;47029;50.994;2.876;2022-11-13T08:03:06;33.53;;;19.02;;
61150;SDS011;47029;50.994;2.876;2022-11-13T08:05:33;33.90;;;19.90;;
61150;SDS011;47029;50.994;2.876;2022-11-13T08:07:59;34.97;;;19.60;;
61150;SDS011;47029;50.994;2.876;2022-11-13T08:10:26;37.35;;;20.17;;
61150;SDS011;47029;50.994;2.876;2022-11-13T08:12:56;36.15;;;19.42;;
61150;SDS011;47029;50.994;2.876;2022-11-13T08:15:24;32.33;;;18.40;;
61150;SDS011;47029;50.994;2.876;2022-11-13T08:17:54;34.35;;;19.50;;
61150;SDS011;47029;50.994;2.876;2022-11-13T08:20:21;35.88;;;19.52;;
61150;SDS011;47029;50.994;2.876;2022-11-13T08:22:48;35.50;;;19.45;;
61150;SDS011;47029;50.994;2.876;2022-11-13T08:25:14;32.88;;;18.35;;
61150;SDS011;47029;50.994;2.876;2022-11-13T08:27:40;35.50;;;19.33;;
61150;SDS011;47029;50.994;2.876;2022-11-13T08:30:06;32.35;;;18.00;;
61150;SDS011;47029;50.994;2.876;2022-11-13T08:32:33;33.03;;;18.35;;
61150;SDS011;47029;50.994;2.876;2022-11-13T08:34:59;34.97;;;19.27;;
61150;SDS011;47029;50.994;2.876;2022-11-13T08:37:25;31.25;;;18.42;;
61150;SDS011;47029;50.994;2.876;2022-11-13T08:39:51;34.05;;;19.10;;
61150;SDS011;47029;50.994;2.876;2022-11-13T08:42:16;38.22;;;20.73;;
61150;SDS011;47029;50.994;2.876;2022-11-13T08:44:43;33.60;;;19.45;;
61150;SDS011;47029;50.994;2.876;2022-11-13T08:47:09;38.42;;;20.48;;
61150;SDS011;47029;50.994;2.876;2022-11-13T08:49:35;35.50;;;19.92;;
61150;SDS011;47029;50.994;2.876;2022-11-13T08:52:01;34.25;;;20.02;;
61150;SDS011;47029;50.994;2.876;2022-11-13T08:54:27;35.67;;;20.42;;
61150;SDS011;47029;50.994;2.876;2022-11-13T08:56:52;33.47;;;20.58;;
61150;SDS011;47029;50.994;2.876;2022-11-13T08:59:19;37.30;;;21.52;;
61150;SDS011;47029;50.994;2.876;2022-11-13T09:01:47;36.65;;;20.27;;
61150;SDS011;47029;50.994;2.876;2022-11-13T09:04:14;35.42;;;19.75;;
61150;SDS011;47029;50.994;2.876;2022-11-13T09:06:39;32.38;;;18.67;;
61150;SDS011;47029;50.994;2.876;2022-11-13T09:09:06;37.38;;;19.23;;
61150;SDS011;47029;50.994;2.876;2022-11-13T09:11:32;30.42;;;17.52;;
61150;SDS011;47029;50.994;2.876;2022-11-13T09:13:58;29.67;;;17.37;;
61150;SDS011;47029;50.994;2.876;2022-11-13T09:16:25;27.75;;;17.67;;
61150;SDS011;47029;50.994;2.876;2022-11-13T09:18:51;27.58;;;17.20;;
61150;SDS011;47029;50.994;2.876;2022-11-13T09:21:17;30.42;;;16.17;;
61150;SDS011;47029;50.994;2.876;2022-11-13T09:23:43;27.02;;;16.50;;
61150;SDS011;47029;50.994;2.876;2022-11-13T09:26:09;28.33;;;15.75;;
61150;SDS011;47029;50.994;2.876;2022-11-13T09:28:36;27.23;;;15.80;;
61150;SDS011;47029;50.994;2.876;2022-11-13T09:31:03;28.62;;;15.98;;
61150;SDS011;47029;50.994;2.876;2022-11-13T09:33:32;30.40;;;16.50;;
61150;SDS011;47029;50.994;2.876;2022-11-13T09:35:58;28.50;;;15.82;;
61150;SDS011;47029;50.994;2.876;2022-11-13T09:38:24;32.08;;;15.82;;
61150;SDS011;47029;50.994;2.876;2022-11-13T09:40:58;29.12;;;15.75;;
61150;SDS011;47029;50.994;2.876;2022-11-13T09:43:45;28.90;;;16.15;;
61150;SDS011;47029;50.994;2.876;2022-11-13T09:49:03;28.48;;;15.32;;
61150;SDS011;47029;50.994;2.876;2022-11-13T09:51:48;26.60;;;14.30;;
61150;SDS011;47029;50.994;2.876;2022-11-13T09:54:16;25.73;;;15.95;;
61150;SDS011;47029;50.994;2.876;2022-11-13T09:56:51;26.40;;;14.82;;
61150;SDS011;47029;50.994;2.876;2022-11-13T09:59:39;30.58;;;15.90;;
61150;SDS011;47029;50.994;2.876;2022-11-13T10:02:13;27.30;;;16.02;;
61150;SDS011;47029;50.994;2.876;2022-11-13T10:07:45;26.92;;;16.25;;
61150;SDS011;47029;50.994;2.876;2022-11-13T10:10:32;27.77;;;16.05;;
61150;SDS011;47029;50.994;2.876;2022-11-13T10:13:00;27.20;;;16.42;;
61150;SDS011;47029;50.994;2.876;2022-11-13T10:15:27;34.63;;;20.83;;
61150;SDS011;47029;50.994;2.876;2022-11-13T10:17:59;29.45;;;18.85;;
61150;SDS011;47029;50.994;2.876;2022-11-13T10:20:46;29.10;;;16.87;;
61150;SDS011;47029;50.994;2.876;2022-11-13T10:23:23;27.00;;;16.23;;
61150;SDS011;47029;50.994;2.876;2022-11-13T10:25:58;29.08;;;16.62;;
61150;SDS011;47029;50.994;2.876;2022-11-13T10:28:58;27.98;;;17.37;;
61150;SDS011;47029;50.994;2.876;2022-11-13T10:34:13;29.90;;;17.15;;
61150;SDS011;47029;50.994;2.876;2022-11-13T10:39:59;29.23;;;15.23;;
61150;SDS011;47029;50.994;2.876;2022-11-13T10:44:57;25.75;;;14.95;;
61150;SDS011;47029;50.994;2.876;2022-11-13T10:47:30;25.02;;;14.95;;
61150;SDS011;47029;50.994;2.876;2022-11-13T10:52:45;26.45;;;14.65;;
61150;SDS011;47029;50.994;2.876;2022-11-13T10:57:41;24.63;;;13.98;;
61150;SDS011;47029;50.994;2.876;2022-11-13T11:00:22;23.30;;;13.32;;
61150;SDS011;47029;50.994;2.876;2022-11-13T11:02:52;24.85;;;13.82;;
61150;SDS011;47029;50.994;2.876;2022-11-13T11:05:19;23.25;;;13.07;;
61150;SDS011;47029;50.994;2.876;2022-11-13T11:07:52;26.55;;;13.85;;
61150;SDS011;47029;50.994;2.876;2022-11-13T11:12:57;26.30;;;14.60;;
61150;SDS011;47029;50.994;2.876;2022-11-13T11:15:41;24.48;;;14.50;;
61150;SDS011;47029;50.994;2.876;2022-11-13T11:20:55;25.50;;;14.93;;
61150;SDS011;47029;50.994;2.876;2022-11-13T11:23:36;25.02;;;14.40;;
61150;SDS011;47029;50.994;2.876;2022-11-13T11:31:55;29.12;;;16.05;;
61150;SDS011;47029;50.994;2.876;2022-11-13T11:37:13;33.78;;;19.12;;
61150;SDS011;47029;50.994;2.876;2022-11-13T11:39:54;29.23;;;17.77;;
61150;SDS011;47029;50.994;2.876;2022-11-13T11:43:02;30.70;;;17.30;;
61150;SDS011;47029;50.994;2.876;2022-11-13T11:46:00;25.98;;;16.02;;
61150;SDS011;47029;50.994;2.876;2022-11-13T11:48:31;27.65;;;16.62;;
61150;SDS011;47029;50.994;2.876;2022-11-13T11:51:17;28.25;;;16.42;;
61150;SDS011;47029;50.994;2.876;2022-11-13T11:54:09;27.85;;;17.02;;
61150;SDS011;47029;50.994;2.876;2022-11-13T11:56:52;29.67;;;17.50;;
61150;SDS011;47029;50.994;2.876;2022-11-13T11:59:32;30.60;;;17.20;;
61150;SDS011;47029;50.994;2.876;2022-11-13T12:05:22;29.98;;;17.87;;
61150;SDS011;47029;50.994;2.876;2022-11-13T12:11:00;29.98;;;17.45;;
61150;SDS011;47029;50.994;2.876;2022-11-13T12:20:37;28.35;;;17.08;;
61150;SDS011;47029;50.994;2.876;2022-11-13T12:26:50;28.73;;;17.65;;
61150;SDS011;47029;50.994;2.876;2022-11-13T12:47:08;24.23;;;15.40;;
61150;SDS011;47029;50.994;2.876;2022-11-13T12:50:00;25.65;;;15.00;;
61150;SDS011;47029;50.994;2.876;2022-11-13T12:52:43;29.55;;;15.40;;
61150;SDS011;47029;50.994;2.876;2022-11-13T12:55:26;26.30;;;14.68;;
61150;SDS011;47029;50.994;2.876;2022-11-13T12:58:19;24.48;;;14.70;;
61150;SDS011;47029;50.994;2.876;2022-11-13T13:06:43;66.95;;;17.58;;
61150;SDS011;47029;50.994;2.876;2022-11-13T13:15:42;23.27;;;13.98;;
61150;SDS011;47029;50.994;2.876;2022-11-13T13:18:39;23.30;;;14.73;;
61150;SDS011;47029;50.994;2.876;2022-11-13T13:21:13;26.83;;;14.90;;
61150;SDS011;47029;50.994;2.876;2022-11-13T13:23:44;25.12;;;15.27;;
61150;SDS011;47029;50.994;2.876;2022-11-13T13:26:44;22.85;;;14.55;;
61150;SDS011;47029;50.994;2.876;2022-11-13T13:29:22;22.00;;;14.80;;
61150;SDS011;47029;50.994;2.876;2022-11-13T13:37:42;29.35;;;16.60;;
61150;SDS011;47029;50.994;2.876;2022-11-13T13:43:49;28.60;;;15.95;;
61150;SDS011;47029;50.994;2.876;2022-11-13T13:46:32;30.35;;;16.02;;
61150;SDS011;47029;50.994;2.876;2022-11-13T13:49:11;24.52;;;15.70;;
61150;SDS011;47029;50.994;2.876;2022-11-13T13:52:02;25.80;;;16.05;;
61150;SDS011;47029;50.994;2.876;2022-11-13T13:54:50;27.13;;;16.73;;
61150;SDS011;47029;50.994;2.876;2022-11-13T13:57:43;27.15;;;16.00;;
61150;SDS011;47029;50.994;2.876;2022-11-13T14:00:21;25.17;;;15.93;;
61150;SDS011;47029;50.994;2.876;2022-11-13T14:02:51;24.95;;;15.48;;
61150;SDS011;47029;50.994;2.876;2022-11-13T14:05:28;23.12;;;14.45;;
61150;SDS011;47029;50.994;2.876;2022-11-13T14:07:56;23.20;;;14.38;;
61150;SDS011;47029;50.994;2.876;2022-11-13T14:10:41;23.08;;;14.43;;
61150;SDS011;47029;50.994;2.876;2022-11-13T14:13:27;24.65;;;15.35;;
61150;SDS011;47029;50.994;2.876;2022-11-13T14:16:03;24.80;;;15.15;;
61150;SDS011;47029;50.994;2.876;2022-11-13T14:19:01;26.25;;;16.15;;
61150;SDS011;47029;50.994;2.876;2022-11-13T14:21:28;29.23;;;17.87;;
61150;SDS011;47029;50.994;2.876;2022-11-13T14:23:54;26.77;;;17.83;;
61150;SDS011;47029;50.994;2.876;2022-11-13T14:26:21;29.08;;;18.23;;
61150;SDS011;47029;50.994;2.876;2022-11-13T14:28:59;29.05;;;19.58;;
61150;SDS011;47029;50.994;2.876;2022-11-13T14:31:33;33.40;;;20.90;;
61150;SDS011;47029;50.994;2.876;2022-11-13T14:34:10;34.22;;;21.75;;
61150;SDS011;47029;50.994;2.876;2022-11-13T14:36:40;33.35;;;21.65;;
61150;SDS011;47029;50.994;2.876;2022-11-13T14:39:26;35.00;;;21.90;;
61150;SDS011;47029;50.994;2.876;2022-11-13T14:41:58;32.58;;;22.13;;
61150;SDS011;47029;50.994;2.876;2022-11-13T14:44:27;34.35;;;22.37;;
61150;SDS011;47029;50.994;2.876;2022-11-13T14:53:26;37.58;;;24.85;;
61150;SDS011;47029;50.994;2.876;2022-11-13T14:59:26;41.37;;;26.20;;
61150;SDS011;47029;50.994;2.876;2022-11-13T15:01:56;45.95;;;26.42;;
61150;SDS011;47029;50.994;2.876;2022-11-13T15:04:24;46.28;;;26.65;;
61150;SDS011;47029;50.994;2.876;2022-11-13T15:10:09;40.70;;;24.50;;
61150;SDS011;47029;50.994;2.876;2022-11-13T15:12:39;41.78;;;25.48;;
61150;SDS011;47029;50.994;2.876;2022-11-13T15:18:07;39.63;;;24.55;;
61150;SDS011;47029;50.994;2.876;2022-11-13T15:20:40;36.15;;;22.75;;
61150;SDS011;47029;50.994;2.876;2022-11-13T15:23:07;34.50;;;21.48;;
61150;SDS011;47029;50.994;2.876;2022-11-13T15:25:37;33.85;;;22.33;;
61150;SDS011;47029;50.994;2.876;2022-11-13T15:28:03;33.28;;;20.55;;
61150;SDS011;47029;50.994;2.876;2022-11-13T15:30:29;29.75;;;17.55;;
61150;SDS011;47029;50.994;2.876;2022-11-13T15:32:59;28.90;;;16.85;;
61150;SDS011;47029;50.994;2.876;2022-11-13T15:35:26;25.37;;;15.93;;
61150;SDS011;47029;50.994;2.876;2022-11-13T15:37:57;24.77;;;15.20;;
61150;SDS011;47029;50.994;2.876;2022-11-13T15:40:25;26.62;;;14.57;;
61150;SDS011;47029;50.994;2.876;2022-11-13T15:42:51;26.25;;;14.65;;
61150;SDS011;47029;50.994;2.876;2022-11-13T15:45:17;25.80;;;14.93;;
61150;SDS011;47029;50.994;2.876;2022-11-13T15:47:42;25.10;;;14.73;;
61150;SDS011;47029;50.994;2.876;2022-11-13T15:50:11;26.85;;;14.93;;
61150;SDS011;47029;50.994;2.876;2022-11-13T15:52:43;28.20;;;14.90;;
61150;SDS011;47029;50.994;2.876;2022-11-13T15:57:52;25.08;;;14.50;;
61150;SDS011;47029;50.994;2.876;2022-11-13T16:00:22;26.90;;;14.20;;
61150;SDS011;47029;50.994;2.876;2022-11-13T16:03:02;25.12;;;14.95;;
61150;SDS011;47029;50.994;2.876;2022-11-13T16:05:35;26.40;;;15.02;;
61150;SDS011;47029;50.994;2.876;2022-11-13T16:08:26;26.42;;;15.45;;
61150;SDS011;47029;50.994;2.876;2022-11-13T16:10:53;30.77;;;16.90;;
61150;SDS011;47029;50.994;2.876;2022-11-13T16:13:33;31.70;;;18.20;;
61150;SDS011;47029;50.994;2.876;2022-11-13T16:18:58;24.05;;;15.20;;
61150;SDS011;47029;50.994;2.876;2022-11-13T16:21:56;25.58;;;14.82;;
61150;SDS011;47029;50.994;2.876;2022-11-13T16:24:49;23.73;;;14.73;;
61150;SDS011;47029;50.994;2.876;2022-11-13T16:27:37;27.15;;;15.52;;
61150;SDS011;47029;50.994;2.876;2022-11-13T16:33:47;24.85;;;15.05;;
61150;SDS011;47029;50.994;2.876;2022-11-13T16:36:29;26.50;;;15.80;;
61150;SDS011;47029;50.994;2.876;2022-11-13T16:39:02;25.17;;;15.10;;
61150;SDS011;47029;50.994;2.876;2022-11-13T16:41:34;28.33;;;16.42;;